sensor_id;sensor_type;location;lat;lon;timestamp;P1;durP1;ratioP1;P2;durP2;ratioP2
55991;SDS011;75963;50.924;4.572;2024-01-30T00:01:25;12.68;;;8.55;;
55991;SDS011;75963;50.924;4.572;2024-01-30T00:03:51;16.20;;;8.68;;
55991;SDS011;75963;50.924;4.572;2024-01-30T00:06:19;12.77;;;8.02;;
55991;SDS011;75963;50.924;4.572;2024-01-30T00:08:47;12.63;;;8.27;;
55991;SDS011;75963;50.924;4.572;2024-01-30T00:11:14;12.25;;;8.00;;
55991;SDS011;75963;50.924;4.572;2024-01-30T00:13:40;11.45;;;7.95;;
55991;SDS011;75963;50.924;4.572;2024-01-30T00:16:06;11.45;;;8.02;;
55991;SDS011;75963;50.924;4.572;2024-01-30T00:18:33;10.95;;;7.60;;
55991;SDS011;75963;50.924;4.572;2024-01-30T00:20:59;12.40;;;7.70;;
55991;SDS011;75963;50.924;4.572;2024-01-30T00:23:25;12.30;;;7.72;;
55991;SDS011;75963;50.924;4.572;2024-01-30T00:25:50;12.23;;;7.50;;
55991;SDS011;75963;50.924;4.572;2024-01-30T00:28:16;13.15;;;7.85;;
55991;SDS011;75963;50.924;4.572;2024-01-30T00:30:44;11.98;;;7.70;;
55991;SDS011;75963;50.924;4.572;2024-01-30T00:33:10;10.70;;;7.25;;
55991;SDS011;75963;50.924;4.572;2024-01-30T00:35:36;14.65;;;6.78;;
55991;SDS011;75963;50.924;4.572;2024-01-30T00:38:01;10.07;;;7.05;;
55991;SDS011;75963;50.924;4.572;2024-01-30T00:40:27;11.52;;;7.63;;
55991;SDS011;75963;50.924;4.572;2024-01-30T00:42:53;13.70;;;7.28;;
55991;SDS011;75963;50.924;4.572;2024-01-30T00:45:18;14.30;;;7.60;;
55991;SDS011;75963;50.924;4.572;2024-01-30T00:47:44;10.95;;;7.05;;
55991;SDS011;75963;50.924;4.572;2024-01-30T00:50:10;12.10;;;7.60;;
55991;SDS011;75963;50.924;4.572;2024-01-30T00:52:36;13.23;;;7.18;;
55991;SDS011;75963;50.924;4.572;2024-01-30T00:55:04;14.25;;;7.00;;
55991;SDS011;75963;50.924;4.572;2024-01-30T00:57:30;13.48;;;7.55;;
55991;SDS011;75963;50.924;4.572;2024-01-30T00:59:55;13.25;;;7.53;;
55991;SDS011;75963;50.924;4.572;2024-01-30T01:02:22;13.88;;;7.03;;
55991;SDS011;75963;50.924;4.572;2024-01-30T01:04:47;11.57;;;7.40;;
55991;SDS011;75963;50.924;4.572;2024-01-30T01:07:13;16.08;;;7.63;;
55991;SDS011;75963;50.924;4.572;2024-01-30T01:09:39;12.45;;;6.82;;
55991;SDS011;75963;50.924;4.572;2024-01-30T01:12:07;12.43;;;7.47;;
55991;SDS011;75963;50.924;4.572;2024-01-30T01:14:32;10.02;;;6.57;;
55991;SDS011;75963;50.924;4.572;2024-01-30T01:17:01;12.38;;;7.05;;
55991;SDS011;75963;50.924;4.572;2024-01-30T01:19:27;12.48;;;6.95;;
55991;SDS011;75963;50.924;4.572;2024-01-30T01:21:52;10.50;;;6.75;;
55991;SDS011;75963;50.924;4.572;2024-01-30T01:24:18;13.23;;;6.70;;
55991;SDS011;75963;50.924;4.572;2024-01-30T01:26:44;10.82;;;6.78;;
55991;SDS011;75963;50.924;4.572;2024-01-30T01:29:12;10.65;;;6.00;;
55991;SDS011;75963;50.924;4.572;2024-01-30T01:31:38;11.52;;;6.28;;
55991;SDS011;75963;50.924;4.572;2024-01-30T01:34:12;11.63;;;7.05;;
55991;SDS011;75963;50.924;4.572;2024-01-30T01:36:43;10.57;;;6.72;;
55991;SDS011;75963;50.924;4.572;2024-01-30T01:39:08;11.60;;;6.55;;
55991;SDS011;75963;50.924;4.572;2024-01-30T01:41:39;9.18;;;6.38;;
55991;SDS011;75963;50.924;4.572;2024-01-30T01:44:04;11.45;;;6.38;;
55991;SDS011;75963;50.924;4.572;2024-01-30T01:46:32;9.15;;;6.57;;
55991;SDS011;75963;50.924;4.572;2024-01-30T01:48:59;8.95;;;6.32;;
55991;SDS011;75963;50.924;4.572;2024-01-30T01:51:27;10.73;;;6.90;;
55991;SDS011;75963;50.924;4.572;2024-01-30T01:53:54;13.52;;;6.18;;
55991;SDS011;75963;50.924;4.572;2024-01-30T01:56:22;10.35;;;6.30;;
55991;SDS011;75963;50.924;4.572;2024-01-30T01:58:49;9.70;;;5.85;;
55991;SDS011;75963;50.924;4.572;2024-01-30T02:01:18;11.25;;;5.95;;
55991;SDS011;75963;50.924;4.572;2024-01-30T02:03:45;8.82;;;5.88;;
55991;SDS011;75963;50.924;4.572;2024-01-30T02:06:12;9.45;;;6.05;;
55991;SDS011;75963;50.924;4.572;2024-01-30T02:08:41;12.05;;;6.22;;
55991;SDS011;75963;50.924;4.572;2024-01-30T02:11:07;9.52;;;6.43;;
55991;SDS011;75963;50.924;4.572;2024-01-30T02:13:35;11.57;;;5.95;;
55991;SDS011;75963;50.924;4.572;2024-01-30T02:16:01;13.25;;;7.25;;
55991;SDS011;75963;50.924;4.572;2024-01-30T02:18:26;10.95;;;6.43;;
55991;SDS011;75963;50.924;4.572;2024-01-30T02:20:53;12.43;;;6.85;;
55991;SDS011;75963;50.924;4.572;2024-01-30T02:23:19;11.90;;;6.43;;
55991;SDS011;75963;50.924;4.572;2024-01-30T02:25:45;11.63;;;6.53;;
55991;SDS011;75963;50.924;4.572;2024-01-30T02:28:14;11.23;;;6.18;;
55991;SDS011;75963;50.924;4.572;2024-01-30T02:30:40;13.27;;;6.82;;
55991;SDS011;75963;50.924;4.572;2024-01-30T02:33:07;12.25;;;6.80;;
55991;SDS011;75963;50.924;4.572;2024-01-30T02:35:33;14.80;;;6.75;;
55991;SDS011;75963;50.924;4.572;2024-01-30T02:37:59;13.15;;;7.20;;
55991;SDS011;75963;50.924;4.572;2024-01-30T02:40:25;12.23;;;7.75;;
55991;SDS011;75963;50.924;4.572;2024-01-30T02:42:53;10.93;;;6.93;;
55991;SDS011;75963;50.924;4.572;2024-01-30T02:45:19;12.45;;;6.90;;
55991;SDS011;75963;50.924;4.572;2024-01-30T02:47:45;11.85;;;7.28;;
55991;SDS011;75963;50.924;4.572;2024-01-30T02:50:11;16.63;;;7.85;;
55991;SDS011;75963;50.924;4.572;2024-01-30T02:52:37;12.10;;;7.25;;
55991;SDS011;75963;50.924;4.572;2024-01-30T02:55:04;14.10;;;7.40;;
55991;SDS011;75963;50.924;4.572;2024-01-30T02:57:30;12.82;;;7.32;;
55991;SDS011;75963;50.924;4.572;2024-01-30T02:59:59;12.23;;;7.20;;
55991;SDS011;75963;50.924;4.572;2024-01-30T03:02:28;12.13;;;7.50;;
55991;SDS011;75963;50.924;4.572;2024-01-30T03:04:53;11.63;;;7.05;;
55991;SDS011;75963;50.924;4.572;2024-01-30T03:07:19;12.82;;;8.05;;
55991;SDS011;75963;50.924;4.572;2024-01-30T03:09:44;10.45;;;7.18;;
55991;SDS011;75963;50.924;4.572;2024-01-30T03:12:13;12.50;;;7.60;;
55991;SDS011;75963;50.924;4.572;2024-01-30T03:14:41;13.20;;;7.43;;
55991;SDS011;75963;50.924;4.572;2024-01-30T03:17:06;14.23;;;7.60;;
55991;SDS011;75963;50.924;4.572;2024-01-30T03:19:34;12.80;;;8.07;;
55991;SDS011;75963;50.924;4.572;2024-01-30T03:22:02;13.15;;;7.35;;
55991;SDS011;75963;50.924;4.572;2024-01-30T03:24:28;12.95;;;8.30;;
55991;SDS011;75963;50.924;4.572;2024-01-30T03:26:53;10.65;;;7.30;;
55991;SDS011;75963;50.924;4.572;2024-01-30T03:29:19;9.95;;;7.32;;
55991;SDS011;75963;50.924;4.572;2024-01-30T03:31:47;11.10;;;7.05;;
55991;SDS011;75963;50.924;4.572;2024-01-30T03:34:15;12.82;;;7.38;;
55991;SDS011;75963;50.924;4.572;2024-01-30T03:36:43;10.45;;;6.65;;
55991;SDS011;75963;50.924;4.572;2024-01-30T03:39:08;13.25;;;6.43;;
55991;SDS011;75963;50.924;4.572;2024-01-30T03:41:36;10.85;;;7.15;;
55991;SDS011;75963;50.924;4.572;2024-01-30T03:44:02;10.02;;;6.38;;
55991;SDS011;75963;50.924;4.572;2024-01-30T03:46:31;10.70;;;7.05;;
55991;SDS011;75963;50.924;4.572;2024-01-30T03:48:56;11.90;;;6.78;;
55991;SDS011;75963;50.924;4.572;2024-01-30T03:51:24;12.48;;;6.50;;
55991;SDS011;75963;50.924;4.572;2024-01-30T03:53:50;12.73;;;6.47;;
55991;SDS011;75963;50.924;4.572;2024-01-30T03:56:17;10.45;;;6.20;;
55991;SDS011;75963;50.924;4.572;2024-01-30T03:58:43;11.32;;;6.03;;
55991;SDS011;75963;50.924;4.572;2024-01-30T04:01:14;10.38;;;6.50;;
55991;SDS011;75963;50.924;4.572;2024-01-30T04:03:40;12.35;;;6.10;;
55991;SDS011;75963;50.924;4.572;2024-01-30T04:06:06;9.45;;;6.03;;
55991;SDS011;75963;50.924;4.572;2024-01-30T04:08:37;12.40;;;6.03;;
55991;SDS011;75963;50.924;4.572;2024-01-30T04:11:03;12.60;;;6.35;;
55991;SDS011;75963;50.924;4.572;2024-01-30T04:13:33;7.32;;;5.70;;
55991;SDS011;75963;50.924;4.572;2024-01-30T04:16:02;8.27;;;5.78;;
55991;SDS011;75963;50.924;4.572;2024-01-30T04:18:28;7.88;;;6.07;;
55991;SDS011;75963;50.924;4.572;2024-01-30T04:20:54;10.98;;;6.18;;
55991;SDS011;75963;50.924;4.572;2024-01-30T04:23:20;10.25;;;5.95;;
55991;SDS011;75963;50.924;4.572;2024-01-30T04:25:46;8.35;;;5.60;;
55991;SDS011;75963;50.924;4.572;2024-01-30T04:28:11;9.38;;;6.15;;
55991;SDS011;75963;50.924;4.572;2024-01-30T04:30:37;8.57;;;5.68;;
55991;SDS011;75963;50.924;4.572;2024-01-30T04:33:03;8.68;;;6.07;;
55991;SDS011;75963;50.924;4.572;2024-01-30T04:35:29;12.52;;;5.93;;
55991;SDS011;75963;50.924;4.572;2024-01-30T04:37:57;8.93;;;6.15;;
55991;SDS011;75963;50.924;4.572;2024-01-30T04:40:23;8.10;;;5.72;;
55991;SDS011;75963;50.924;4.572;2024-01-30T04:42:48;11.65;;;6.10;;
55991;SDS011;75963;50.924;4.572;2024-01-30T04:45:14;8.05;;;5.78;;
55991;SDS011;75963;50.924;4.572;2024-01-30T04:47:42;11.27;;;6.13;;
55991;SDS011;75963;50.924;4.572;2024-01-30T04:50:11;11.30;;;5.60;;
55991;SDS011;75963;50.924;4.572;2024-01-30T04:52:38;11.82;;;6.20;;
55991;SDS011;75963;50.924;4.572;2024-01-30T04:55:04;9.05;;;5.82;;
55991;SDS011;75963;50.924;4.572;2024-01-30T04:57:30;9.35;;;6.07;;
55991;SDS011;75963;50.924;4.572;2024-01-30T04:59:58;11.32;;;5.82;;
55991;SDS011;75963;50.924;4.572;2024-01-30T05:02:24;10.02;;;6.30;;
55991;SDS011;75963;50.924;4.572;2024-01-30T05:04:52;9.25;;;5.80;;
55991;SDS011;75963;50.924;4.572;2024-01-30T05:07:20;7.82;;;5.32;;
55991;SDS011;75963;50.924;4.572;2024-01-30T05:09:45;9.77;;;5.43;;
55991;SDS011;75963;50.924;4.572;2024-01-30T05:12:13;10.35;;;5.85;;
55991;SDS011;75963;50.924;4.572;2024-01-30T05:14:39;10.25;;;5.45;;
55991;SDS011;75963;50.924;4.572;2024-01-30T05:17:05;8.63;;;6.05;;
55991;SDS011;75963;50.924;4.572;2024-01-30T05:19:30;9.73;;;5.63;;
55991;SDS011;75963;50.924;4.572;2024-01-30T05:21:56;11.80;;;5.82;;
55991;SDS011;75963;50.924;4.572;2024-01-30T05:24:21;12.07;;;5.90;;
55991;SDS011;75963;50.924;4.572;2024-01-30T05:26:47;10.70;;;6.03;;
55991;SDS011;75963;50.924;4.572;2024-01-30T05:29:13;9.50;;;6.13;;
55991;SDS011;75963;50.924;4.572;2024-01-30T05:31:39;8.25;;;5.50;;
55991;SDS011;75963;50.924;4.572;2024-01-30T05:34:04;8.02;;;5.55;;
55991;SDS011;75963;50.924;4.572;2024-01-30T05:36:33;11.02;;;6.45;;
55991;SDS011;75963;50.924;4.572;2024-01-30T05:38:58;9.07;;;6.18;;
55991;SDS011;75963;50.924;4.572;2024-01-30T05:41:29;13.27;;;5.70;;
55991;SDS011;75963;50.924;4.572;2024-01-30T05:43:54;11.20;;;5.97;;
55991;SDS011;75963;50.924;4.572;2024-01-30T05:46:20;7.93;;;5.60;;
55991;SDS011;75963;50.924;4.572;2024-01-30T05:48:46;9.57;;;6.05;;
55991;SDS011;75963;50.924;4.572;2024-01-30T05:51:11;10.02;;;6.22;;
55991;SDS011;75963;50.924;4.572;2024-01-30T05:53:37;11.18;;;5.85;;
55991;SDS011;75963;50.924;4.572;2024-01-30T05:56:03;10.57;;;6.22;;
55991;SDS011;75963;50.924;4.572;2024-01-30T05:58:29;10.20;;;6.25;;
55991;SDS011;75963;50.924;4.572;2024-01-30T06:00:56;10.88;;;6.50;;
55991;SDS011;75963;50.924;4.572;2024-01-30T06:03:24;15.75;;;6.78;;
55991;SDS011;75963;50.924;4.572;2024-01-30T06:05:49;11.48;;;5.55;;
55991;SDS011;75963;50.924;4.572;2024-01-30T06:08:15;11.10;;;6.43;;
55991;SDS011;75963;50.924;4.572;2024-01-30T06:10:41;12.13;;;6.78;;
55991;SDS011;75963;50.924;4.572;2024-01-30T06:13:09;9.05;;;6.28;;
55991;SDS011;75963;50.924;4.572;2024-01-30T06:15:37;11.25;;;6.35;;
55991;SDS011;75963;50.924;4.572;2024-01-30T06:18:02;9.07;;;6.00;;
55991;SDS011;75963;50.924;4.572;2024-01-30T06:20:28;11.23;;;6.15;;
55991;SDS011;75963;50.924;4.572;2024-01-30T06:22:54;11.63;;;6.10;;
55991;SDS011;75963;50.924;4.572;2024-01-30T06:25:20;12.20;;;6.50;;
55991;SDS011;75963;50.924;4.572;2024-01-30T06:27:45;9.25;;;6.20;;
55991;SDS011;75963;50.924;4.572;2024-01-30T06:30:11;11.57;;;6.22;;
55991;SDS011;75963;50.924;4.572;2024-01-30T06:32:37;12.30;;;6.10;;
55991;SDS011;75963;50.924;4.572;2024-01-30T06:35:03;8.85;;;5.85;;
55991;SDS011;75963;50.924;4.572;2024-01-30T06:37:30;9.32;;;5.60;;
55991;SDS011;75963;50.924;4.572;2024-01-30T06:39:56;12.00;;;6.18;;
55991;SDS011;75963;50.924;4.572;2024-01-30T06:42:22;12.20;;;6.53;;
55991;SDS011;75963;50.924;4.572;2024-01-30T06:44:49;10.20;;;6.07;;
55991;SDS011;75963;50.924;4.572;2024-01-30T06:47:15;9.15;;;6.22;;
55991;SDS011;75963;50.924;4.572;2024-01-30T06:49:41;11.02;;;6.32;;
55991;SDS011;75963;50.924;4.572;2024-01-30T06:52:08;8.90;;;6.28;;
55991;SDS011;75963;50.924;4.572;2024-01-30T06:54:34;10.90;;;6.50;;
55991;SDS011;75963;50.924;4.572;2024-01-30T06:57:00;10.88;;;6.65;;
55991;SDS011;75963;50.924;4.572;2024-01-30T06:59:28;9.85;;;6.47;;
55991;SDS011;75963;50.924;4.572;2024-01-30T07:01:54;11.95;;;6.72;;
55991;SDS011;75963;50.924;4.572;2024-01-30T07:04:19;11.55;;;6.80;;
55991;SDS011;75963;50.924;4.572;2024-01-30T07:06:45;9.80;;;5.70;;
55991;SDS011;75963;50.924;4.572;2024-01-30T07:09:11;11.38;;;6.60;;
55991;SDS011;75963;50.924;4.572;2024-01-30T07:11:37;10.88;;;6.40;;
55991;SDS011;75963;50.924;4.572;2024-01-30T07:14:02;10.55;;;6.93;;
55991;SDS011;75963;50.924;4.572;2024-01-30T07:16:30;12.43;;;7.00;;
55991;SDS011;75963;50.924;4.572;2024-01-30T07:18:56;11.05;;;6.47;;
55991;SDS011;75963;50.924;4.572;2024-01-30T07:21:22;8.35;;;5.88;;
55991;SDS011;75963;50.924;4.572;2024-01-30T07:23:53;10.43;;;6.28;;
55991;SDS011;75963;50.924;4.572;2024-01-30T07:26:21;9.98;;;6.35;;
55991;SDS011;75963;50.924;4.572;2024-01-30T07:28:47;13.70;;;7.10;;
55991;SDS011;75963;50.924;4.572;2024-01-30T07:31:13;11.07;;;6.60;;
55991;SDS011;75963;50.924;4.572;2024-01-30T07:33:41;11.07;;;6.88;;
55991;SDS011;75963;50.924;4.572;2024-01-30T07:36:07;11.00;;;6.72;;
55991;SDS011;75963;50.924;4.572;2024-01-30T07:38:35;12.55;;;6.55;;
55991;SDS011;75963;50.924;4.572;2024-01-30T07:41:01;14.07;;;6.55;;
55991;SDS011;75963;50.924;4.572;2024-01-30T07:43:26;9.25;;;5.82;;
55991;SDS011;75963;50.924;4.572;2024-01-30T07:45:52;13.20;;;7.32;;
55991;SDS011;75963;50.924;4.572;2024-01-30T07:48:18;11.18;;;6.88;;
55991;SDS011;75963;50.924;4.572;2024-01-30T07:50:43;9.98;;;6.80;;
55991;SDS011;75963;50.924;4.572;2024-01-30T07:53:12;11.48;;;6.68;;
55991;SDS011;75963;50.924;4.572;2024-01-30T07:55:37;14.88;;;8.50;;
55991;SDS011;75963;50.924;4.572;2024-01-30T07:58:03;12.63;;;7.20;;
55991;SDS011;75963;50.924;4.572;2024-01-30T08:00:29;12.68;;;7.25;;
55991;SDS011;75963;50.924;4.572;2024-01-30T08:02:55;15.82;;;7.53;;
55991;SDS011;75963;50.924;4.572;2024-01-30T08:05:21;11.02;;;7.22;;
55991;SDS011;75963;50.924;4.572;2024-01-30T08:07:50;15.70;;;7.28;;
55991;SDS011;75963;50.924;4.572;2024-01-30T08:10:16;13.13;;;7.03;;
55991;SDS011;75963;50.924;4.572;2024-01-30T08:12:43;12.98;;;7.72;;
55991;SDS011;75963;50.924;4.572;2024-01-30T08:15:09;13.23;;;7.03;;
55991;SDS011;75963;50.924;4.572;2024-01-30T08:17:37;14.45;;;7.35;;
55991;SDS011;75963;50.924;4.572;2024-01-30T08:20:02;16.05;;;7.60;;
55991;SDS011;75963;50.924;4.572;2024-01-30T08:22:29;13.07;;;7.50;;
55991;SDS011;75963;50.924;4.572;2024-01-30T08:24:55;16.75;;;7.72;;
55991;SDS011;75963;50.924;4.572;2024-01-30T08:27:21;16.58;;;7.72;;
55991;SDS011;75963;50.924;4.572;2024-01-30T08:29:50;17.13;;;8.07;;
55991;SDS011;75963;50.924;4.572;2024-01-30T08:32:16;17.73;;;7.15;;
55991;SDS011;75963;50.924;4.572;2024-01-30T08:34:41;20.00;;;8.30;;
55991;SDS011;75963;50.924;4.572;2024-01-30T08:37:07;18.50;;;7.60;;
55991;SDS011;75963;50.924;4.572;2024-01-30T08:39:35;14.07;;;7.60;;
55991;SDS011;75963;50.924;4.572;2024-01-30T08:42:03;17.98;;;7.07;;
55991;SDS011;75963;50.924;4.572;2024-01-30T08:44:29;18.45;;;7.25;;
55991;SDS011;75963;50.924;4.572;2024-01-30T08:46:54;17.10;;;7.75;;
55991;SDS011;75963;50.924;4.572;2024-01-30T08:49:20;17.90;;;7.43;;
55991;SDS011;75963;50.924;4.572;2024-01-30T08:51:46;18.48;;;7.20;;
55991;SDS011;75963;50.924;4.572;2024-01-30T08:54:12;17.83;;;7.70;;
55991;SDS011;75963;50.924;4.572;2024-01-30T08:56:38;16.38;;;7.70;;
55991;SDS011;75963;50.924;4.572;2024-01-30T08:59:03;17.92;;;8.23;;
55991;SDS011;75963;50.924;4.572;2024-01-30T09:01:29;16.15;;;7.85;;
55991;SDS011;75963;50.924;4.572;2024-01-30T09:03:55;16.90;;;8.38;;
55991;SDS011;75963;50.924;4.572;2024-01-30T09:06:23;19.08;;;8.43;;
55991;SDS011;75963;50.924;4.572;2024-01-30T09:08:54;17.52;;;7.90;;
55991;SDS011;75963;50.924;4.572;2024-01-30T09:11:19;16.08;;;7.82;;
55991;SDS011;75963;50.924;4.572;2024-01-30T09:13:45;15.45;;;8.23;;
55991;SDS011;75963;50.924;4.572;2024-01-30T09:16:11;18.02;;;7.60;;
55991;SDS011;75963;50.924;4.572;2024-01-30T09:18:36;15.80;;;8.52;;
55991;SDS011;75963;50.924;4.572;2024-01-30T09:21:04;16.95;;;8.20;;
55991;SDS011;75963;50.924;4.572;2024-01-30T09:23:32;15.95;;;8.43;;
55991;SDS011;75963;50.924;4.572;2024-01-30T09:25:58;15.77;;;8.00;;
55991;SDS011;75963;50.924;4.572;2024-01-30T09:28:24;17.40;;;8.25;;
55991;SDS011;75963;50.924;4.572;2024-01-30T09:30:50;15.38;;;8.18;;
55991;SDS011;75963;50.924;4.572;2024-01-30T09:33:18;17.17;;;8.82;;
55991;SDS011;75963;50.924;4.572;2024-01-30T09:35:43;21.40;;;9.10;;
55991;SDS011;75963;50.924;4.572;2024-01-30T09:38:09;18.63;;;8.20;;
55991;SDS011;75963;50.924;4.572;2024-01-30T09:40:35;17.05;;;8.82;;
55991;SDS011;75963;50.924;4.572;2024-01-30T09:43:01;19.92;;;9.88;;
55991;SDS011;75963;50.924;4.572;2024-01-30T09:45:27;18.65;;;8.70;;
55991;SDS011;75963;50.924;4.572;2024-01-30T09:47:53;14.93;;;8.60;;
55991;SDS011;75963;50.924;4.572;2024-01-30T09:50:19;20.15;;;8.10;;
55991;SDS011;75963;50.924;4.572;2024-01-30T09:52:46;21.75;;;9.27;;
55991;SDS011;75963;50.924;4.572;2024-01-30T09:55:12;17.98;;;9.40;;
55991;SDS011;75963;50.924;4.572;2024-01-30T09:57:38;21.30;;;9.93;;
55991;SDS011;75963;50.924;4.572;2024-01-30T10:00:07;17.55;;;8.98;;
55991;SDS011;75963;50.924;4.572;2024-01-30T10:02:34;21.13;;;9.57;;
55991;SDS011;75963;50.924;4.572;2024-01-30T10:05:00;19.00;;;9.10;;
55991;SDS011;75963;50.924;4.572;2024-01-30T10:07:26;17.10;;;9.57;;
55991;SDS011;75963;50.924;4.572;2024-01-30T10:09:52;18.50;;;9.70;;
55991;SDS011;75963;50.924;4.572;2024-01-30T10:12:19;16.42;;;9.82;;
55991;SDS011;75963;50.924;4.572;2024-01-30T10:14:44;22.00;;;10.98;;
55991;SDS011;75963;50.924;4.572;2024-01-30T10:17:11;23.83;;;9.55;;
55991;SDS011;75963;50.924;4.572;2024-01-30T10:19:39;17.23;;;10.48;;
55991;SDS011;75963;50.924;4.572;2024-01-30T10:22:08;16.52;;;9.63;;
55991;SDS011;75963;50.924;4.572;2024-01-30T10:24:34;20.05;;;9.57;;
55991;SDS011;75963;50.924;4.572;2024-01-30T10:27:02;20.10;;;10.23;;
55991;SDS011;75963;50.924;4.572;2024-01-30T10:29:30;16.17;;;10.32;;
55991;SDS011;75963;50.924;4.572;2024-01-30T10:32:03;20.00;;;10.10;;
55991;SDS011;75963;50.924;4.572;2024-01-30T10:34:29;20.30;;;10.07;;
55991;SDS011;75963;50.924;4.572;2024-01-30T10:37:08;19.50;;;10.15;;
55991;SDS011;75963;50.924;4.572;2024-01-30T10:39:41;16.25;;;9.77;;
55991;SDS011;75963;50.924;4.572;2024-01-30T10:42:11;14.77;;;9.93;;
55991;SDS011;75963;50.924;4.572;2024-01-30T10:47:21;20.88;;;10.93;;
55991;SDS011;75963;50.924;4.572;2024-01-30T10:49:52;17.33;;;10.07;;
55991;SDS011;75963;50.924;4.572;2024-01-30T10:52:21;17.13;;;9.45;;
55991;SDS011;75963;50.924;4.572;2024-01-30T10:54:50;17.60;;;9.75;;
55991;SDS011;75963;50.924;4.572;2024-01-30T10:57:17;17.52;;;8.93;;
55991;SDS011;75963;50.924;4.572;2024-01-30T10:59:45;16.15;;;8.13;;
55991;SDS011;75963;50.924;4.572;2024-01-30T11:02:12;18.65;;;8.52;;
55991;SDS011;75963;50.924;4.572;2024-01-30T11:04:40;15.80;;;5.85;;
55991;SDS011;75963;50.924;4.572;2024-01-30T11:07:23;11.95;;;4.28;;
55991;SDS011;75963;50.924;4.572;2024-01-30T11:09:59;9.85;;;3.70;;
55991;SDS011;75963;50.924;4.572;2024-01-30T11:12:32;13.02;;;3.80;;
55991;SDS011;75963;50.924;4.572;2024-01-30T11:20:14;5.70;;;2.08;;
55991;SDS011;75963;50.924;4.572;2024-01-30T11:22:44;9.23;;;2.15;;
55991;SDS011;75963;50.924;4.572;2024-01-30T11:25:16;7.35;;;2.25;;
55991;SDS011;75963;50.924;4.572;2024-01-30T11:27:44;7.35;;;1.75;;
55991;SDS011;75963;50.924;4.572;2024-01-30T11:30:11;6.43;;;2.20;;
55991;SDS011;75963;50.924;4.572;2024-01-30T11:35:37;7.53;;;2.08;;
55991;SDS011;75963;50.924;4.572;2024-01-30T11:38:10;5.75;;;1.80;;
55991;SDS011;75963;50.924;4.572;2024-01-30T11:40:38;7.70;;;2.00;;
55991;SDS011;75963;50.924;4.572;2024-01-30T11:43:05;8.00;;;1.63;;
55991;SDS011;75963;50.924;4.572;2024-01-30T11:45:33;9.45;;;1.98;;
55991;SDS011;75963;50.924;4.572;2024-01-30T11:48:01;6.38;;;1.77;;
55991;SDS011;75963;50.924;4.572;2024-01-30T11:50:33;9.02;;;1.67;;
55991;SDS011;75963;50.924;4.572;2024-01-30T11:53:03;5.43;;;1.40;;
55991;SDS011;75963;50.924;4.572;2024-01-30T11:55:30;5.07;;;1.80;;
55991;SDS011;75963;50.924;4.572;2024-01-30T11:57:59;6.22;;;1.70;;
55991;SDS011;75963;50.924;4.572;2024-01-30T12:00:25;5.38;;;1.42;;
55991;SDS011;75963;50.924;4.572;2024-01-30T12:02:52;6.30;;;1.20;;
55991;SDS011;75963;50.924;4.572;2024-01-30T12:05:24;9.05;;;1.13;;
55991;SDS011;75963;50.924;4.572;2024-01-30T12:07:50;5.55;;;1.20;;
55991;SDS011;75963;50.924;4.572;2024-01-30T12:10:17;4.15;;;1.15;;
55991;SDS011;75963;50.924;4.572;2024-01-30T12:12:44;3.40;;;0.90;;
55991;SDS011;75963;50.924;4.572;2024-01-30T12:15:11;3.45;;;1.00;;
55991;SDS011;75963;50.924;4.572;2024-01-30T12:17:38;12.18;;;0.98;;
55991;SDS011;75963;50.924;4.572;2024-01-30T12:20:07;5.22;;;1.15;;
55991;SDS011;75963;50.924;4.572;2024-01-30T12:22:44;3.92;;;0.85;;
55991;SDS011;75963;50.924;4.572;2024-01-30T12:25:14;2.95;;;0.88;;
55991;SDS011;75963;50.924;4.572;2024-01-30T12:27:45;2.97;;;0.77;;
55991;SDS011;75963;50.924;4.572;2024-01-30T12:30:15;3.78;;;1.10;;
55991;SDS011;75963;50.924;4.572;2024-01-30T12:32:44;7.28;;;1.27;;
55991;SDS011;75963;50.924;4.572;2024-01-30T12:35:11;5.80;;;1.83;;
55991;SDS011;75963;50.924;4.572;2024-01-30T12:37:38;5.30;;;1.23;;
55991;SDS011;75963;50.924;4.572;2024-01-30T12:40:04;4.95;;;1.30;;
55991;SDS011;75963;50.924;4.572;2024-01-30T12:42:34;4.18;;;1.15;;
55991;SDS011;75963;50.924;4.572;2024-01-30T12:45:02;2.30;;;0.70;;
55991;SDS011;75963;50.924;4.572;2024-01-30T12:47:29;2.75;;;0.90;;
55991;SDS011;75963;50.924;4.572;2024-01-30T12:49:55;5.18;;;0.75;;
55991;SDS011;75963;50.924;4.572;2024-01-30T12:52:21;2.78;;;0.80;;
55991;SDS011;75963;50.924;4.572;2024-01-30T12:54:47;4.65;;;1.00;;
55991;SDS011;75963;50.924;4.572;2024-01-30T12:57:16;4.47;;;0.93;;
55991;SDS011;75963;50.924;4.572;2024-01-30T12:59:45;5.88;;;0.95;;
55991;SDS011;75963;50.924;4.572;2024-01-30T13:02:12;4.20;;;0.80;;
55991;SDS011;75963;50.924;4.572;2024-01-30T13:04:40;3.92;;;1.00;;
55991;SDS011;75963;50.924;4.572;2024-01-30T13:07:07;5.97;;;1.15;;
55991;SDS011;75963;50.924;4.572;2024-01-30T13:09:32;5.13;;;1.33;;
55991;SDS011;75963;50.924;4.572;2024-01-30T13:11:58;9.63;;;1.10;;
55991;SDS011;75963;50.924;4.572;2024-01-30T13:14:25;3.40;;;0.95;;
55991;SDS011;75963;50.924;4.572;2024-01-30T13:16:51;3.22;;;0.90;;
55991;SDS011;75963;50.924;4.572;2024-01-30T13:19:17;6.55;;;1.30;;
55991;SDS011;75963;50.924;4.572;2024-01-30T13:21:42;4.13;;;1.10;;
55991;SDS011;75963;50.924;4.572;2024-01-30T13:24:08;3.67;;;0.88;;
55991;SDS011;75963;50.924;4.572;2024-01-30T13:26:36;4.65;;;1.00;;
55991;SDS011;75963;50.924;4.572;2024-01-30T13:29:02;8.68;;;1.27;;
55991;SDS011;75963;50.924;4.572;2024-01-30T13:31:28;5.57;;;1.08;;
55991;SDS011;75963;50.924;4.572;2024-01-30T13:33:54;7.80;;;1.40;;
55991;SDS011;75963;50.924;4.572;2024-01-30T13:36:22;6.47;;;1.00;;
55991;SDS011;75963;50.924;4.572;2024-01-30T13:38:48;4.38;;;0.90;;
55991;SDS011;75963;50.924;4.572;2024-01-30T13:41:14;6.68;;;1.20;;
55991;SDS011;75963;50.924;4.572;2024-01-30T13:43:39;6.00;;;1.33;;
55991;SDS011;75963;50.924;4.572;2024-01-30T13:46:05;3.80;;;1.02;;
55991;SDS011;75963;50.924;4.572;2024-01-30T13:48:31;6.55;;;1.35;;
55991;SDS011;75963;50.924;4.572;2024-01-30T13:50:56;4.35;;;1.15;;
55991;SDS011;75963;50.924;4.572;2024-01-30T13:53:22;5.75;;;1.75;;
55991;SDS011;75963;50.924;4.572;2024-01-30T13:55:48;4.65;;;1.98;;
55991;SDS011;75963;50.924;4.572;2024-01-30T13:58:14;4.00;;;1.20;;
55991;SDS011;75963;50.924;4.572;2024-01-30T14:00:39;5.00;;;1.55;;
55991;SDS011;75963;50.924;4.572;2024-01-30T14:03:07;5.03;;;1.48;;
55991;SDS011;75963;50.924;4.572;2024-01-30T14:05:33;7.43;;;1.38;;
55991;SDS011;75963;50.924;4.572;2024-01-30T14:07:59;7.00;;;1.50;;
55991;SDS011;75963;50.924;4.572;2024-01-30T14:10:25;7.22;;;1.60;;
55991;SDS011;75963;50.924;4.572;2024-01-30T14:12:51;8.70;;;1.98;;
55991;SDS011;75963;50.924;4.572;2024-01-30T14:15:17;10.93;;;1.65;;
55991;SDS011;75963;50.924;4.572;2024-01-30T14:17:43;8.15;;;1.80;;
55991;SDS011;75963;50.924;4.572;2024-01-30T14:20:10;5.78;;;1.30;;
55991;SDS011;75963;50.924;4.572;2024-01-30T14:22:36;5.18;;;1.58;;
55991;SDS011;75963;50.924;4.572;2024-01-30T14:25:02;7.00;;;1.58;;
55991;SDS011;75963;50.924;4.572;2024-01-30T14:27:29;4.32;;;1.27;;
55991;SDS011;75963;50.924;4.572;2024-01-30T14:29:55;6.43;;;1.45;;
55991;SDS011;75963;50.924;4.572;2024-01-30T14:32:21;7.20;;;1.50;;
55991;SDS011;75963;50.924;4.572;2024-01-30T14:34:50;7.68;;;1.23;;
55991;SDS011;75963;50.924;4.572;2024-01-30T14:37:17;5.97;;;1.42;;
55991;SDS011;75963;50.924;4.572;2024-01-30T14:39:43;5.65;;;1.48;;
55991;SDS011;75963;50.924;4.572;2024-01-30T14:42:09;8.40;;;1.50;;
55991;SDS011;75963;50.924;4.572;2024-01-30T14:44:35;4.20;;;1.20;;
55991;SDS011;75963;50.924;4.572;2024-01-30T14:47:00;8.63;;;1.70;;